Time;durP1;ratioP1;P1;durP2;ratioP2;P2;SDS_P1;SDS_P2;PMS_P1;PMS_P2;Temp;Humidity;BMP_temperature;BMP_pressure;BME280_temperature;BME280_humidity;BME280_pressure;Samples;Min_cycle;Max_cycle;Signal;HPM_P1;HPM_P2
2021/01/25 00:01:57;;;;;;;3.13;1.80;;;19.60;45.90;;;;;;5066611;28;20036;-64
2021/01/25 00:04:22;;;;;;;2.33;1.83;;;19.60;45.90;;;;;;5066840;28;20725;-65
2021/01/25 00:06:47;;;;;;;2.45;1.67;;;19.60;45.90;;;;;;5067098;28;20048;-64
2021/01/25 00:09:13;;;;;;;3.38;2.00;;;19.60;45.80;;;;;;5067088;28;20025;-64
2021/01/25 00:11:38;;;;;;;2.65;1.83;;;19.60;45.70;;;;;;5067037;28;20502;-64
2021/01/25 00:14:04;;;;;;;3.05;2.20;;;19.70;45.70;;;;;;5065871;28;20036;-65
2021/01/25 00:16:29;;;;;;;3.15;2.20;;;19.70;45.70;;;;;;5066705;28;20029;-64
2021/01/25 00:18:55;;;;;;;4.05;1.80;;;19.70;45.70;;;;;;5066334;28;20028;-64
2021/01/25 00:21:20;;;;;;;3.13;1.67;;;19.70;45.70;;;;;;5067083;28;20025;-64
2021/01/25 00:23:46;;;;;;;2.78;1.92;;;19.70;45.70;;;;;;5065371;28;20388;-64
2021/01/25 00:26:11;;;;;;;3.05;1.60;;;19.70;45.60;;;;;;5066182;28;20028;-64
2021/01/25 00:28:37;;;;;;;2.28;2.08;;;19.70;45.60;;;;;;5065850;28;20033;-64
2021/01/25 00:31:02;;;;;;;2.40;2.00;;;19.70;45.60;;;;;;5066375;28;20040;-65
2021/01/25 00:33:28;;;;;;;3.67;2.05;;;19.70;45.60;;;;;;5066013;28;20028;-64
2021/01/25 00:35:53;;;;;;;2.58;2.38;;;19.70;45.60;;;;;;5066382;28;20028;-64
2021/01/25 00:38:19;;;;;;;2.78;1.70;;;19.70;45.60;;;;;;5066458;28;20024;-64
2021/01/25 00:40:45;;;;;;;2.03;1.67;;;19.70;45.60;;;;;;5065942;28;20028;-65
2021/01/25 00:43:11;;;;;;;2.45;1.60;;;19.70;45.60;;;;;;5066116;28;20029;-64
2021/01/25 00:45:36;;;;;;;3.03;2.35;;;19.70;45.60;;;;;;5066304;28;20036;-64
2021/01/25 00:48:02;;;;;;;2.25;2.00;;;19.70;45.60;;;;;;5066168;28;20028;-64
2021/01/25 00:50:27;;;;;;;1.88;1.48;;;19.70;45.60;;;;;;5066354;28;20032;-64
2021/01/25 00:52:53;;;;;;;2.88;1.92;;;19.70;45.60;;;;;;5065770;28;20040;-63
2021/01/25 00:55:18;;;;;;;2.08;1.88;;;19.70;45.70;;;;;;5065526;28;20045;-64
2021/01/25 00:57:44;;;;;;;1.80;1.60;;;19.70;45.70;;;;;;5065040;28;20029;-64
2021/01/25 01:00:10;;;;;;;3.10;1.60;;;19.70;45.70;;;;;;5064674;28;20044;-63
2021/01/25 01:02:36;;;;;;;4.15;1.85;;;19.70;45.70;;;;;;5065411;28;20036;-64
2021/01/25 01:05:02;;;;;;;1.50;1.40;;;19.70;45.70;;;;;;5058038;28;20098;-64
2021/01/25 01:07:28;;;;;;;2.08;1.80;;;19.60;45.70;;;;;;5065407;28;20644;-64
2021/01/25 01:09:53;;;;;;;1.50;1.35;;;19.60;45.70;;;;;;5066281;28;20032;-64
2021/01/25 01:12:19;;;;;;;1.83;1.50;;;19.60;45.70;;;;;;5065031;28;20036;-61
2021/01/25 01:14:44;;;;;;;1.55;1.30;;;19.50;45.70;;;;;;5047014;28;20034;-64
2021/01/25 01:17:10;;;;;;;1.83;1.38;;;19.60;45.70;;;;;;5065179;28;20514;-64
2021/01/25 01:19:35;;;;;;;2.67;1.77;;;19.50;45.70;;;;;;5065656;28;20124;-64
2021/01/25 01:22:01;;;;;;;3.00;1.55;;;19.50;45.70;;;;;;5065339;28;20055;-64
2021/01/25 01:24:26;;;;;;;2.13;1.17;;;19.50;45.70;;;;;;5065554;28;20509;-64
2021/01/25 01:26:52;;;;;;;1.52;1.38;;;19.50;45.70;;;;;;5065088;28;20065;-64
2021/01/25 01:29:17;;;;;;;1.50;1.02;;;19.50;45.70;;;;;;5065123;28;20035;-64
2021/01/25 01:31:43;;;;;;;1.73;1.63;;;19.50;45.70;;;;;;5065464;28;20503;-64
2021/01/25 01:34:08;;;;;;;1.80;1.60;;;19.50;45.80;;;;;;5041272;28;20032;-64
2021/01/25 01:36:34;;;;;;;1.80;1.52;;;19.50;45.80;;;;;;5064548;28;20032;-64
2021/01/25 01:38:59;;;;;;;1.48;1.30;;;19.50;45.70;;;;;;5065728;28;20028;-64
2021/01/25 01:41:25;;;;;;;1.90;1.50;;;19.50;45.80;;;;;;5064069;28;20398;-64
2021/01/25 01:43:51;;;;;;;1.80;1.40;;;19.50;45.80;;;;;;5047249;28;20036;-64
2021/01/25 01:46:16;;;;;;;2.85;1.60;;;19.40;45.70;;;;;;5064920;28;20048;-64
2021/01/25 01:48:42;;;;;;;1.83;1.50;;;19.40;45.70;;;;;;5065068;28;20051;-64
2021/01/25 01:51:07;;;;;;;3.25;1.38;;;19.40;45.70;;;;;;5047168;28;20511;-63
2021/01/25 01:53:33;;;;;;;1.75;1.50;;;19.40;45.70;;;;;;5064612;28;20051;-64
2021/01/25 01:55:58;;;;;;;1.55;1.42;;;19.40;45.70;;;;;;5046691;28;20051;-64
2021/01/25 01:58:24;;;;;;;1.85;1.60;;;19.40;45.70;;;;;;5046620;28;20037;-64
2021/01/25 02:00:49;;;;;;;2.13;1.88;;;19.40;45.70;;;;;;5046858;28;20039;-64
2021/01/25 02:03:15;;;;;;;1.52;1.30;;;19.40;45.70;;;;;;5065046;28;20442;-64
2021/01/25 02:05:41;;;;;;;1.55;1.27;;;19.40;45.70;;;;;;5062941;28;20075;-64
2021/01/25 02:08:06;;;;;;;3.60;2.45;;;19.40;45.70;;;;;;5046185;28;20031;-64
2021/01/25 02:10:32;;;;;;;1.63;1.50;;;19.30;45.70;;;;;;5064465;28;20407;-64
2021/01/25 02:13:00;;;;;;;1.92;1.70;;;19.30;45.70;;;;;;5025432;28;20645;-64
2021/01/25 02:15:26;;;;;;;1.95;1.40;;;19.30;45.70;;;;;;5043142;28;20082;-64
2021/01/25 02:17:52;;;;;;;1.50;1.20;;;19.30;45.80;;;;;;5064046;28;20024;-64
2021/01/25 02:20:20;;;;;;;2.47;1.45;;;19.30;45.80;;;;;;5046546;28;20028;-64
2021/01/25 02:22:51;;;;;;;1.90;1.20;;;19.30;45.90;;;;;;5046426;28;20043;-65
2021/01/25 02:25:35;;;;;;;1.98;1.45;;;19.20;45.80;;;;;;5046326;28;20060;-64
2021/01/25 02:28:01;;;;;;;1.35;1.25;;;19.20;45.80;;;;;;5047129;28;20078;-64
2021/01/25 02:30:26;;;;;;;2.28;1.50;;;19.20;46.40;;;;;;5063736;28;20029;-64
2021/01/25 02:32:52;;;;;;;1.67;1.38;;;19.20;45.80;;;;;;5064116;28;20032;-63
2021/01/25 02:35:17;;;;;;;2.10;1.40;;;19.10;46.40;;;;;;5046372;28;20029;-64
2021/01/25 02:37:44;;;;;;;2.40;1.40;;;19.10;45.70;;;;;;5044757;28;20039;-64
2021/01/25 02:40:11;;;;;;;2.17;1.52;;;19.10;45.80;;;;;;5046490;28;20037;-64
2021/01/25 02:42:37;;;;;;;1.25;1.02;;;19.00;45.80;;;;;;5046187;28;20047;-64
2021/01/25 02:45:04;;;;;;;1.40;1.20;;;19.00;45.90;;;;;;5030187;28;20033;-63
2021/01/25 02:47:29;;;;;;;1.20;1.10;;;19.00;45.90;;;;;;5064274;28;20054;-64
2021/01/25 02:49:55;;;;;;;1.58;1.20;;;19.00;45.90;;;;;;5045789;28;20024;-64
2021/01/25 02:52:20;;;;;;;1.33;1.23;;;18.90;45.90;;;;;;5063023;28;20716;-65
2021/01/25 02:54:46;;;;;;;1.27;1.17;;;18.90;45.80;;;;;;5045378;28;20431;-64
2021/01/25 02:57:12;;;;;;;1.70;1.60;;;18.90;45.80;;;;;;5063476;28;20032;-64
2021/01/25 02:59:38;;;;;;;2.03;1.27;;;18.90;45.80;;;;;;5046025;28;20038;-64
2021/01/25 03:02:05;;;;;;;2.20;1.20;;;18.90;45.80;;;;;;5029392;28;20029;-64
2021/01/25 03:04:30;;;;;;;1.40;1.30;;;18.90;45.80;;;;;;5045386;28;20056;-64
2021/01/25 03:06:57;;;;;;;1.73;1.30;;;18.90;45.80;;;;;;5045408;28;20047;-64
2021/01/25 03:09:22;;;;;;;1.50;1.40;;;18.80;45.70;;;;;;5063775;28;20128;-64
2021/01/25 03:11:48;;;;;;;1.30;1.20;;;18.80;45.70;;;;;;5063433;28;20032;-64
2021/01/25 03:14:14;;;;;;;1.38;1.10;;;18.80;45.80;;;;;;5045957;28;20036;-64
2021/01/25 03:16:39;;;;;;;1.60;1.50;;;18.80;45.80;;;;;;5063597;28;20036;-65
2021/01/25 03:19:05;;;;;;;1.55;1.42;;;18.80;45.90;;;;;;5064397;28;20071;-63
2021/01/25 03:21:32;;;;;;;1.27;1.17;;;18.80;45.90;;;;;;5065758;28;20033;-64
2021/01/25 03:23:58;;;;;;;1.63;1.52;;;18.80;46.00;;;;;;5049768;28;20074;-64
2021/01/25 03:26:23;;;;;;;1.70;1.10;;;18.80;45.90;;;;;;5067292;28;20036;-64
2021/01/25 03:28:49;;;;;;;1.33;1.10;;;18.90;45.90;;;;;;5067569;28;20569;-65
2021/01/25 03:31:14;;;;;;;1.17;1.00;;;18.90;45.80;;;;;;5066884;28;20033;-64
2021/01/25 03:33:40;;;;;;;2.47;1.20;;;19.00;45.70;;;;;;5066699;28;20100;-64
2021/01/25 03:36:05;;;;;;;1.55;1.30;;;19.00;45.70;;;;;;5067317;28;20462;-64
2021/01/25 03:38:31;;;;;;;1.35;1.00;;;19.10;45.50;;;;;;5067430;28;20040;-64
2021/01/25 03:40:56;;;;;;;1.40;1.10;;;19.20;45.40;;;;;;5066897;28;20035;-63
2021/01/25 03:43:22;;;;;;;1.33;1.10;;;19.30;45.30;;;;;;5067014;28;20502;-64
2021/01/25 03:45:47;;;;;;;1.55;1.10;;;19.40;45.20;;;;;;5066956;28;20031;-63
2021/01/25 03:48:13;;;;;;;2.00;1.25;;;19.50;45.10;;;;;;5048780;28;20028;-64
2021/01/25 03:50:38;;;;;;;1.33;1.10;;;19.60;45.00;;;;;;5066797;28;20115;-64
2021/01/25 03:53:04;;;;;;;1.25;1.13;;;19.60;44.90;;;;;;5066427;28;20028;-64
2021/01/25 03:55:30;;;;;;;1.48;1.20;;;19.70;44.90;;;;;;5066997;28;20037;-64
2021/01/25 03:57:56;;;;;;;1.38;1.20;;;19.80;44.80;;;;;;5066743;28;20618;-64
2021/01/25 04:00:21;;;;;;;1.67;1.30;;;19.90;44.70;;;;;;5066483;28;20549;-64
2021/01/25 04:02:47;;;;;;;1.27;1.10;;;19.90;44.60;;;;;;5067790;28;20052;-64
2021/01/25 04:05:12;;;;;;;1.40;1.27;;;20.00;44.60;;;;;;5066041;28;20024;-60
2021/01/25 04:07:39;;;;;;;1.48;1.10;;;20.00;44.50;;;;;;5066736;28;20082;-61
2021/01/25 04:10:05;;;;;;;0.73;0.70;;;20.10;44.50;;;;;;5066696;28;20036;-61
2021/01/25 04:12:31;;;;;;;1.42;1.27;;;20.10;44.50;;;;;;5066446;28;20033;-64
2021/01/25 04:14:56;;;;;;;1.27;1.02;;;20.10;45.00;;;;;;5065665;28;20567;-64
2021/01/25 04:17:23;;;;;;;1.17;0.95;;;20.10;44.40;;;;;;5066170;28;20028;-63
2021/01/25 04:19:49;;;;;;;1.38;1.20;;;20.10;44.40;;;;;;5058211;28;20144;-60
2021/01/25 04:22:15;;;;;;;1.10;1.00;;;20.10;44.40;;;;;;5065443;28;20616;-64
2021/01/25 04:24:40;;;;;;;1.27;0.88;;;20.10;44.30;;;;;;5066142;28;20539;-64
2021/01/25 04:27:10;;;;;;;1.10;1.00;;;20.10;44.30;;;;;;5048276;28;20046;-64
2021/01/25 04:29:37;;;;;;;1.65;1.08;;;20.00;44.40;;;;;;5066236;28;20037;-64
2021/01/25 04:32:02;;;;;;;1.80;0.93;;;20.10;44.50;;;;;;5064831;28;20071;-64
2021/01/25 04:34:28;;;;;;;1.02;0.93;;;20.00;44.40;;;;;;5065068;28;20394;-64
2021/01/25 04:36:53;;;;;;;1.27;1.10;;;20.00;44.50;;;;;;5066061;28;20764;-64
2021/01/25 04:39:19;;;;;;;1.35;1.10;;;20.00;44.60;;;;;;5066527;28;20025;-64
2021/01/25 04:41:44;;;;;;;1.40;1.30;;;19.90;44.50;;;;;;5066350;28;20032;-61
2021/01/25 04:44:10;;;;;;;1.10;1.00;;;19.90;44.60;;;;;;5047519;28;20193;-64
2021/01/25 04:46:35;;;;;;;1.02;0.90;;;19.90;44.60;;;;;;5047797;28;20033;-64
2021/01/25 04:49:01;;;;;;;1.00;0.90;;;19.80;44.60;;;;;;5047544;28;20025;-64
2021/01/25 04:51:26;;;;;;;1.50;1.10;;;19.80;44.70;;;;;;5047709;28;20029;-64
2021/01/25 04:53:52;;;;;;;1.73;1.20;;;19.80;44.70;;;;;;5047702;28;20059;-62
2021/01/25 04:56:17;;;;;;;1.60;1.48;;;19.70;44.70;;;;;;5031301;28;20056;-65
2021/01/25 04:58:43;;;;;;;1.00;0.90;;;19.70;44.70;;;;;;5066329;28;20097;-64
2021/01/25 05:01:08;;;;;;;1.50;1.10;;;19.70;44.70;;;;;;5047621;28;20033;-64
2021/01/25 05:03:34;;;;;;;1.20;1.00;;;19.70;44.70;;;;;;5064664;28;20617;-65
2021/01/25 05:05:59;;;;;;;1.48;1.20;;;19.60;44.80;;;;;;5046816;28;20028;-65
2021/01/25 05:08:25;;;;;;;1.10;0.95;;;19.60;44.70;;;;;;5065636;28;20031;-65
2021/01/25 05:10:50;;;;;;;1.40;1.00;;;19.60;44.80;;;;;;5065198;28;20016;-63
2021/01/25 05:13:22;;;;;;;1.13;1.02;;;19.60;44.60;;;;;;5047722;28;20060;-65
2021/01/25 05:15:50;;;;;;;1.10;0.95;;;19.50;44.70;;;;;;5005113;28;20129;-66
2021/01/25 05:18:19;;;;;;;1.42;1.20;;;19.50;44.70;;;;;;5065141;28;20025;-63
2021/01/25 05:20:46;;;;;;;1.85;1.30;;;19.50;44.80;;;;;;5046785;28;20082;-64
2021/01/25 05:23:14;;;;;;;1.52;1.23;;;19.50;44.70;;;;;;5030230;28;20036;-63
2021/01/25 05:25:40;;;;;;;2.15;1.20;;;19.50;44.70;;;;;;5047207;28;20040;-64
2021/01/25 05:28:06;;;;;;;2.15;1.30;;;19.40;44.70;;;;;;5030819;28;20073;-64
2021/01/25 05:30:33;;;;;;;1.42;1.33;;;19.40;44.80;;;;;;5065049;28;20028;-63
2021/01/25 05:32:59;;;;;;;2.22;1.70;;;19.40;44.70;;;;;;5064015;28;20024;-63
2021/01/25 05:35:26;;;;;;;2.75;1.42;;;19.40;44.60;;;;;;5064747;28;20024;-64
2021/01/25 05:37:59;;;;;;;1.75;1.38;;;19.40;44.70;;;;;;5064644;28;20425;-65
2021/01/25 05:40:26;;;;;;;5.93;1.50;;;19.30;44.80;;;;;;5046735;28;20483;-64
2021/01/25 05:42:51;;;;;;;2.83;1.90;;;19.40;44.80;;;;;;5064527;28;20036;-64
2021/01/25 05:45:17;;;;;;;3.80;1.75;;;19.30;44.80;;;;;;5063739;28;20035;-64
2021/01/25 05:47:44;;;;;;;2.90;1.70;;;19.30;44.80;;;;;;5046363;28;20036;-65
2021/01/25 05:50:11;;;;;;;2.92;1.75;;;19.30;44.80;;;;;;5046537;28;20115;-64
2021/01/25 05:52:42;;;;;;;2.10;1.90;;;19.30;44.80;;;;;;5047176;28;20039;-64
2021/01/25 05:55:08;;;;;;;2.78;1.95;;;19.30;44.90;;;;;;5064625;28;20414;-62
2021/01/25 05:57:33;;;;;;;4.30;2.10;;;19.30;44.90;;;;;;5064103;28;20025;-65
2021/01/25 05:59:59;;;;;;;3.35;1.90;;;19.30;44.90;;;;;;5064705;28;20032;-65
2021/01/25 06:02:24;;;;;;;1.95;1.75;;;19.30;44.90;;;;;;5064679;28;20059;-64
2021/01/25 06:04:49;;;;;;;2.95;2.22;;;19.20;44.90;;;;;;5030322;28;20518;-64
2021/01/25 06:07:15;;;;;;;2.80;2.15;;;19.20;44.90;;;;;;5064774;28;20082;-64
2021/01/25 06:09:51;;;;;;;6.00;2.13;;;19.20;44.90;;;;;;5046447;28;20047;-64
2021/01/25 06:12:16;;;;;;;3.50;2.75;;;19.20;45.00;;;;;;5064239;28;20036;-63
2021/01/25 06:14:46;;;;;;;14.52;6.90;;;19.20;44.90;;;;;;5045824;28;20055;-63
2021/01/25 06:17:14;;;;;;;26.05;12.05;;;19.20;45.00;;;;;;5044931;28;20025;-64
2021/01/25 06:19:40;;;;;;;23.23;12.10;;;19.20;45.10;;;;;;5064179;28;20056;-63
2021/01/25 06:22:07;;;;;;;22.80;12.82;;;19.20;45.10;;;;;;5046208;28;20039;-63
2021/01/25 06:24:32;;;;;;;34.53;17.40;;;19.10;45.20;;;;;;5046803;28;20021;-64
2021/01/25 06:27:00;;;;;;;37.13;19.70;;;19.10;45.30;;;;;;5049175;28;20505;-63
2021/01/25 06:29:25;;;;;;;38.15;20.40;;;19.10;45.30;;;;;;5064067;28;20442;-63
2021/01/25 06:31:55;;;;;;;42.05;19.90;;;19.00;45.40;;;;;;5046254;28;20086;-64
2021/01/25 06:34:20;;;;;;;38.55;21.15;;;19.00;45.50;;;;;;5064201;28;20466;-63
2021/01/25 06:36:48;;;;;;;46.28;22.95;;;19.00;45.70;;;;;;5064108;28;20036;-63
2021/01/25 06:39:29;;;;;;;44.17;21.13;;;19.00;45.70;;;;;;5046753;28;20440;-63
2021/01/25 06:42:02;;;;;;;41.35;21.67;;;19.00;45.70;;;;;;5048770;28;20032;-62
2021/01/25 06:44:28;;;;;;;38.88;19.85;;;18.90;45.60;;;;;;5063677;28;20029;-62
2021/01/25 06:46:58;;;;;;;38.67;19.38;;;18.90;45.60;;;;;;5064834;28;20446;-63
2021/01/25 06:49:24;;;;;;;39.08;19.50;;;18.90;45.60;;;;;;5064551;28;20036;-62
2021/01/25 06:51:50;;;;;;;43.15;19.08;;;18.90;45.70;;;;;;5045666;28;20028;-62
2021/01/25 06:54:15;;;;;;;40.95;19.20;;;18.90;45.80;;;;;;5045882;28;20036;-62
2021/01/25 06:56:58;;;;;;;35.08;17.98;;;18.90;45.70;;;;;;5064668;28;20036;-63
2021/01/25 06:59:27;;;;;;;34.42;18.20;;;18.90;45.80;;;;;;5064176;28;20036;-62
2021/01/25 07:01:53;;;;;;;34.00;17.40;;;18.90;45.80;;;;;;5046234;28;20643;-63
2021/01/25 07:04:23;;;;;;;32.15;16.10;;;18.80;45.70;;;;;;5063511;28;20032;-63
2021/01/25 07:06:55;;;;;;;30.02;15.77;;;18.80;45.80;;;;;;5063342;28;20033;-63
2021/01/25 07:09:30;;;;;;;25.95;14.27;;;18.80;45.80;;;;;;5064176;28;20108;-62
2021/01/25 07:12:00;;;;;;;33.05;14.20;;;18.80;45.80;;;;;;5064343;28;20028;-63
2021/01/25 07:14:26;;;;;;;28.63;15.00;;;18.80;45.80;;;;;;5063465;28;20598;-63
2021/01/25 07:16:53;;;;;;;25.33;14.75;;;18.80;45.80;;;;;;5064250;28;20033;-62
2021/01/25 07:19:19;;;;;;;26.35;13.70;;;18.80;45.70;;;;;;5064725;28;20040;-62
2021/01/25 07:21:46;;;;;;;29.00;13.93;;;18.80;45.70;;;;;;5064865;28;20059;-63
2021/01/25 07:24:11;;;;;;;22.85;12.50;;;18.90;45.70;;;;;;5046254;28;20028;-62
2021/01/25 07:26:38;;;;;;;22.67;12.77;;;18.90;45.70;;;;;;5046423;28;20074;-63
2021/01/25 07:29:10;;;;;;;23.02;13.68;;;18.90;45.60;;;;;;5063999;28;20826;-63
2021/01/25 07:31:35;;;;;;;21.55;12.43;;;18.80;45.60;;;;;;5063918;28;20064;-63
2021/01/25 07:34:01;;;;;;;23.60;11.98;;;18.90;45.60;;;;;;5063840;28;20032;-63
2021/01/25 07:36:26;;;;;;;17.95;11.32;;;18.90;45.60;;;;;;5046536;28;20032;-63
2021/01/25 07:38:52;;;;;;;24.00;11.27;;;18.90;45.50;;;;;;5064026;28;20040;-62
2021/01/25 07:41:18;;;;;;;20.77;10.20;;;19.00;45.50;;;;;;5064246;28;20066;-63
2021/01/25 07:43:43;;;;;;;15.95;10.00;;;18.90;45.40;;;;;;5063284;28;20025;-62
2021/01/25 07:46:09;;;;;;;21.23;9.70;;;19.00;45.40;;;;;;5045766;28;20859;-57
2021/01/25 07:48:47;;;;;;;17.40;9.90;;;19.00;45.40;;;;;;5063790;28;20037;-64
2021/01/25 07:51:18;;;;;;;16.67;9.60;;;19.00;45.30;;;;;;5045915;28;20086;-63
2021/01/25 07:53:43;;;;;;;15.02;8.15;;;19.00;45.20;;;;;;5063254;28;20526;-63
2021/01/25 07:56:13;;;;;;;12.30;7.50;;;19.00;45.20;;;;;;5063264;28;20035;-60
2021/01/25 07:58:39;;;;;;;14.57;8.25;;;19.00;45.20;;;;;;5061192;28;20024;-63
2021/01/25 08:01:13;;;;;;;13.20;8.05;;;19.10;45.20;;;;;;5063773;28;20021;-63
2021/01/25 08:03:42;;;;;;;11.00;7.45;;;19.10;45.10;;;;;;5063793;28;20497;-62
2021/01/25 08:06:08;;;;;;;13.35;8.23;;;19.10;45.10;;;;;;5045410;28;20032;-61
2021/01/25 08:08:34;;;;;;;12.32;7.07;;;19.10;45.00;;;;;;5067503;28;20600;-63
2021/01/25 08:10:59;;;;;;;10.23;7.05;;;19.10;44.90;;;;;;5067905;28;20035;-63
2021/01/25 08:13:30;;;;;;;10.18;5.88;;;19.20;44.80;;;;;;5048768;28;20067;-63
2021/01/25 08:16:01;;;;;;;9.18;6.38;;;19.20;44.80;;;;;;5049270;28;20028;-63
2021/01/25 08:18:37;;;;;;;11.52;6.18;;;19.20;44.60;;;;;;5049769;28;20120;-62
2021/01/25 08:21:03;;;;;;;8.00;5.50;;;19.30;44.60;;;;;;5049815;28;20495;-63
2021/01/25 08:23:28;;;;;;;7.80;5.20;;;19.30;44.50;;;;;;5048351;28;22578;-63
2021/01/25 08:25:58;;;;;;;8.30;5.40;;;19.40;44.50;;;;;;5048605;28;20116;-63
2021/01/25 08:28:28;;;;;;;7.45;5.43;;;19.40;44.40;;;;;;5049305;28;20043;-63
2021/01/25 08:30:53;;;;;;;9.00;5.53;;;19.50;44.30;;;;;;5063862;28;20445;-63
2021/01/25 08:33:28;;;;;;;7.55;5.18;;;19.50;44.20;;;;;;5066618;28;20020;-63
2021/01/25 08:35:55;;;;;;;6.47;4.68;;;19.50;44.20;;;;;;5065943;28;20063;-63
2021/01/25 08:38:34;;;;;;;7.97;5.10;;;19.60;44.20;;;;;;5066844;28;20029;-64
2021/01/25 08:41:01;;;;;;;8.30;4.97;;;19.60;44.20;;;;;;5066697;28;20104;-64
2021/01/25 08:43:27;;;;;;;7.90;4.90;;;19.60;44.60;;;;;;5049291;28;20020;-63
2021/01/25 08:45:53;;;;;;;6.82;4.35;;;19.70;44.00;;;;;;5067457;28;20110;-62
2021/01/25 08:48:32;;;;;;;5.88;4.97;;;19.70;43.90;;;;;;5049215;28;20033;-63
2021/01/25 08:51:11;;;;;;;8.75;5.05;;;19.80;43.90;;;;;;5049293;28;20025;-63
2021/01/25 08:53:37;;;;;;;6.00;4.68;;;19.80;43.90;;;;;;5066135;28;20040;-63
2021/01/25 08:56:18;;;;;;;5.85;4.45;;;19.80;43.70;;;;;;5065909;28;20033;-63
2021/01/25 08:58:44;;;;;;;4.32;3.78;;;19.80;43.80;;;;;;5066124;28;20115;-63
2021/01/25 09:01:17;;;;;;;4.95;3.70;;;19.80;43.60;;;;;;5066588;28;20108;-63
2021/01/25 09:03:43;;;;;;;6.50;3.80;;;19.80;43.70;;;;;;5048298;28;20514;-63
2021/01/25 09:06:10;;;;;;;4.90;3.72;;;19.80;43.60;;;;;;5048267;28;20044;-63
2021/01/25 09:08:35;;;;;;;5.90;3.65;;;19.80;43.60;;;;;;5066785;28;20040;-63
2021/01/25 09:11:00;;;;;;;4.95;3.28;;;19.80;43.60;;;;;;5065709;28;20036;-63
2021/01/25 09:13:26;;;;;;;5.22;4.00;;;19.80;43.70;;;;;;5066247;28;20036;-63
2021/01/25 09:15:51;;;;;;;5.45;3.65;;;19.80;43.60;;;;;;5065719;28;20035;-64
2021/01/25 09:18:17;;;;;;;4.10;2.83;;;19.80;43.60;;;;;;5065936;28;20395;-64
2021/01/25 09:20:42;;;;;;;4.60;3.70;;;19.80;43.60;;;;;;5066009;28;20039;-64
2021/01/25 09:23:08;;;;;;;5.38;3.75;;;19.80;43.60;;;;;;5066364;28;20025;-63
2021/01/25 09:25:33;;;;;;;4.68;3.45;;;19.80;43.60;;;;;;5064536;28;20380;-63
2021/01/25 09:27:59;;;;;;;4.10;3.35;;;19.70;43.60;;;;;;5065046;28;20033;-64
2021/01/25 09:30:27;;;;;;;4.38;3.15;;;19.70;43.50;;;;;;5065589;28;20056;-64
2021/01/25 09:32:53;;;;;;;3.55;2.78;;;19.70;43.60;;;;;;5048143;28;20060;-64
2021/01/25 09:35:19;;;;;;;3.63;2.90;;;19.70;43.60;;;;;;5065158;28;20388;-63
2021/01/25 09:37:44;;;;;;;6.47;3.58;;;19.70;43.60;;;;;;5065009;28;20043;-63
2021/01/25 09:40:10;;;;;;;4.05;2.97;;;19.70;43.70;;;;;;5065085;28;20107;-64
2021/01/25 09:42:36;;;;;;;4.07;2.97;;;19.60;43.60;;;;;;5066026;28;20062;-63
2021/01/25 09:45:02;;;;;;;3.45;2.85;;;19.70;43.70;;;;;;5065421;28;20024;-63
2021/01/25 09:47:27;;;;;;;3.28;2.40;;;19.60;43.60;;;;;;5064664;28;20028;-63
2021/01/25 09:49:53;;;;;;;3.72;2.72;;;19.60;43.70;;;;;;5064481;28;20388;-63
2021/01/25 09:52:19;;;;;;;3.15;2.38;;;19.60;43.80;;;;;;5065378;28;20036;-63
2021/01/25 09:54:44;;;;;;;2.92;2.60;;;19.50;43.60;;;;;;5064980;28;20047;-63
2021/01/25 09:57:10;;;;;;;4.65;3.10;;;19.50;43.70;;;;;;5065181;28;20025;-62
2021/01/25 09:59:35;;;;;;;3.33;2.88;;;19.50;43.70;;;;;;5065357;28;20032;-63
2021/01/25 10:02:00;;;;;;;3.50;2.65;;;19.50;43.70;;;;;;5065292;28;20595;-62
2021/01/25 10:04:26;;;;;;;2.65;2.15;;;19.50;43.80;;;;;;5064932;28;20032;-63
2021/01/25 10:06:51;;;;;;;2.78;2.20;;;19.50;43.80;;;;;;5065098;28;20089;-63
2021/01/25 10:09:17;;;;;;;3.28;2.67;;;19.40;43.80;;;;;;5064565;28;20039;-63
2021/01/25 10:11:43;;;;;;;3.58;2.22;;;19.40;43.80;;;;;;5064827;28;20032;-64
2021/01/25 10:14:08;;;;;;;3.10;2.78;;;19.40;43.80;;;;;;5065288;28;20035;-63
2021/01/25 10:16:34;;;;;;;2.83;2.30;;;19.30;43.80;;;;;;5064480;28;20036;-63
2021/01/25 10:19:00;;;;;;;2.95;2.13;;;19.40;43.90;;;;;;5064513;28;20053;-63
2021/01/25 10:21:25;;;;;;;2.83;2.20;;;19.40;43.90;;;;;;5064460;28;20035;-63
2021/01/25 10:23:51;;;;;;;2.35;1.75;;;19.40;43.90;;;;;;5064119;28;20024;-63
2021/01/25 10:26:17;;;;;;;2.50;2.22;;;19.30;43.80;;;;;;5064228;28;20487;-63
2021/01/25 10:28:43;;;;;;;2.40;2.03;;;19.30;44.00;;;;;;5065446;28;20032;-62
2021/01/25 10:31:08;;;;;;;3.50;2.40;;;19.30;44.00;;;;;;5060782;28;20036;-63
2021/01/25 10:33:34;;;;;;;2.47;2.20;;;19.30;43.90;;;;;;5051659;28;20123;-63
2021/01/25 10:35:59;;;;;;;2.38;1.95;;;19.30;43.90;;;;;;5043834;28;20495;-63
2021/01/25 10:38:25;;;;;;;2.55;2.00;;;19.30;44.00;;;;;;5025904;28;20028;-64
2021/01/25 10:40:51;;;;;;;2.50;2.30;;;19.20;43.90;;;;;;5043835;28;20094;-63
2021/01/25 10:43:17;;;;;;;2.55;2.28;;;19.30;44.00;;;;;;5026560;28;20035;-63
2021/01/25 10:45:42;;;;;;;2.40;2.15;;;19.20;44.00;;;;;;5026247;28;20017;-63
2021/01/25 10:48:08;;;;;;;2.67;2.17;;;19.30;44.00;;;;;;5043590;28;20392;-63
2021/01/25 10:50:33;;;;;;;2.30;2.10;;;19.20;44.00;;;;;;5043851;28;20040;-63
2021/01/25 10:52:59;;;;;;;3.08;2.25;;;19.20;44.00;;;;;;5043716;28;20024;-63
2021/01/25 10:55:24;;;;;;;2.22;1.80;;;19.20;44.00;;;;;;5043922;28;20040;-62
2021/01/25 10:57:50;;;;;;;2.38;2.15;;;19.20;44.00;;;;;;5044450;28;20119;-62
2021/01/25 11:00:17;;;;;;;3.50;1.80;;;19.20;44.00;;;;;;5044947;28;20660;-63
2021/01/25 11:02:42;;;;;;;2.45;2.00;;;19.20;44.10;;;;;;5026053;28;20029;-63
2021/01/25 11:05:09;;;;;;;2.92;2.30;;;19.10;44.00;;;;;;5043958;28;20517;-63
2021/01/25 11:07:35;;;;;;;2.70;1.98;;;19.20;44.10;;;;;;5043946;28;20518;-63
2021/01/25 11:10:00;;;;;;;2.63;2.03;;;19.20;44.20;;;;;;5044028;28;20032;-63
2021/01/25 11:12:26;;;;;;;2.70;1.67;;;19.20;44.10;;;;;;5044221;28;20052;-64
2021/01/25 11:14:51;;;;;;;2.72;2.25;;;19.10;44.20;;;;;;5043869;28;20033;-63
2021/01/25 11:17:17;;;;;;;2.92;2.30;;;19.10;44.10;;;;;;5043851;28;20243;-63
2021/01/25 11:19:42;;;;;;;3.08;2.30;;;19.10;44.20;;;;;;5025963;28;20427;-63
2021/01/25 11:22:08;;;;;;;2.75;1.90;;;19.10;44.20;;;;;;5043795;28;20116;-64
2021/01/25 11:24:33;;;;;;;2.70;2.28;;;19.10;44.20;;;;;;5043610;28;20035;-63
2021/01/25 11:27:02;;;;;;;1.95;1.75;;;19.10;44.20;;;;;;5043588;28;20029;-63
2021/01/25 11:29:30;;;;;;;1.90;1.70;;;19.10;44.20;;;;;;5043713;28;20033;-63
2021/01/25 11:32:00;;;;;;;2.15;1.77;;;19.10;44.20;;;;;;5043669;28;20021;-63
2021/01/25 11:34:26;;;;;;;2.08;1.77;;;19.10;44.20;;;;;;5043508;28;20025;-63
2021/01/25 11:36:51;;;;;;;2.13;1.90;;;19.10;44.20;;;;;;5025517;28;20033;-63
2021/01/25 11:39:17;;;;;;;3.55;1.95;;;19.10;44.20;;;;;;5044138;28;20431;-63
2021/01/25 11:41:42;;;;;;;2.13;1.85;;;19.10;44.20;;;;;;5044115;28;20036;-64
2021/01/25 11:44:08;;;;;;;2.65;1.60;;;19.10;44.30;;;;;;5047578;28;20013;-63
2021/01/25 11:46:33;;;;;;;4.18;1.92;;;19.10;44.20;;;;;;5047572;28;20125;-63
2021/01/25 11:48:59;;;;;;;2.85;2.22;;;19.10;44.20;;;;;;5047365;28;20068;-61
2021/01/25 11:51:24;;;;;;;2.58;1.75;;;19.10;44.30;;;;;;5047511;28;20033;-63
2021/01/25 11:53:50;;;;;;;2.40;2.20;;;19.10;44.50;;;;;;5013883;28;20029;-62
2021/01/25 11:56:15;;;;;;;2.03;1.83;;;19.10;44.30;;;;;;5047255;28;20033;-63
2021/01/25 11:58:41;;;;;;;2.85;1.80;;;19.10;44.30;;;;;;5047575;28;20531;-63
2021/01/25 12:01:06;;;;;;;3.90;2.17;;;19.10;44.30;;;;;;5047374;28;20491;-63
2021/01/25 12:03:32;;;;;;;2.67;2.40;;;19.10;44.40;;;;;;5046854;28;20049;-62
2021/01/25 12:05:58;;;;;;;2.33;1.95;;;19.10;44.30;;;;;;5046949;28;20090;-63
2021/01/25 12:08:23;;;;;;;2.40;2.20;;;19.10;44.30;;;;;;5047100;28;20029;-64
2021/01/25 12:10:49;;;;;;;2.75;1.92;;;19.10;44.30;;;;;;5047999;28;20039;-61
2021/01/25 12:13:14;;;;;;;2.22;2.03;;;19.10;44.40;;;;;;5047103;28;20079;-63
2021/01/25 12:15:40;;;;;;;2.85;1.85;;;19.10;44.30;;;;;;5047207;28;20029;-63
2021/01/25 12:18:06;;;;;;;2.35;2.08;;;19.10;44.30;;;;;;5047025;28;20108;-58
2021/01/25 12:20:31;;;;;;;2.10;1.90;;;19.20;44.30;;;;;;5046352;28;20036;-61
2021/01/25 12:22:57;;;;;;;1.95;1.70;;;19.10;44.30;;;;;;5046615;28;20029;-63
2021/01/25 12:25:22;;;;;;;2.13;1.70;;;19.10;44.40;;;;;;5047329;28;20032;-63
2021/01/25 12:27:49;;;;;;;1.77;1.58;;;19.10;44.30;;;;;;5046805;28;20025;-63
2021/01/25 12:30:15;;;;;;;2.50;2.03;;;19.10;44.30;;;;;;5047104;28;20033;-63
2021/01/25 12:32:42;;;;;;;2.30;1.67;;;19.10;44.30;;;;;;5046742;28;20079;-62
2021/01/25 12:35:09;;;;;;;2.63;1.70;;;19.10;44.30;;;;;;5046910;28;20050;-62
2021/01/25 12:37:34;;;;;;;1.65;1.42;;;19.10;44.30;;;;;;5046633;28;20029;-62
2021/01/25 12:40:00;;;;;;;2.10;1.90;;;19.10;44.30;;;;;;5046958;28;20029;-64